sensor_id;sensor_type;location;lat;lon;timestamp;pressure;altitude;pressure_sealevel;temperature
29423;BMP180;16399;51.686;8.684;2022-08-19T00:02:42;99580.00;;;18.60
29423;BMP180;16399;51.686;8.684;2022-08-19T00:05:44;99588.00;;;18.60
29423;BMP180;16399;51.686;8.684;2022-08-19T00:08:47;99587.00;;;18.50
29423;BMP180;16399;51.686;8.684;2022-08-19T00:11:50;99595.00;;;18.40
29423;BMP180;16399;51.686;8.684;2022-08-19T00:14:53;99604.00;;;18.40
29423;BMP180;16399;51.686;8.684;2022-08-19T00:17:55;99597.00;;;18.40
29423;BMP180;16399;51.686;8.684;2022-08-19T00:20:58;99595.00;;;18.40
29423;BMP180;16399;51.686;8.684;2022-08-19T00:24:00;99586.00;;;18.40
29423;BMP180;16399;51.686;8.684;2022-08-19T00:27:02;99585.00;;;18.40
29423;BMP180;16399;51.686;8.684;2022-08-19T00:30:06;99581.00;;;18.40
29423;BMP180;16399;51.686;8.684;2022-08-19T00:33:09;99586.00;;;18.50
29423;BMP180;16399;51.686;8.684;2022-08-19T00:36:11;99591.00;;;18.50
29423;BMP180;16399;51.686;8.684;2022-08-19T00:39:15;99580.00;;;18.50
29423;BMP180;16399;51.686;8.684;2022-08-19T00:42:19;99587.00;;;18.50
29423;BMP180;16399;51.686;8.684;2022-08-19T00:45:24;99590.00;;;18.40
29423;BMP180;16399;51.686;8.684;2022-08-19T00:48:27;99592.00;;;18.30
29423;BMP180;16399;51.686;8.684;2022-08-19T00:51:30;99582.00;;;18.30
29423;BMP180;16399;51.686;8.684;2022-08-19T00:54:33;99578.00;;;18.20
29423;BMP180;16399;51.686;8.684;2022-08-19T00:57:40;99583.00;;;18.20
29423;BMP180;16399;51.686;8.684;2022-08-19T01:00:43;99568.00;;;18.10
29423;BMP180;16399;51.686;8.684;2022-08-19T01:03:46;99563.00;;;18.00
29423;BMP180;16399;51.686;8.684;2022-08-19T01:06:48;99560.00;;;18.00
29423;BMP180;16399;51.686;8.684;2022-08-19T01:09:51;99555.00;;;17.90
29423;BMP180;16399;51.686;8.684;2022-08-19T01:12:55;99557.00;;;17.80
29423;BMP180;16399;51.686;8.684;2022-08-19T01:16:05;99554.00;;;17.70
29423;BMP180;16399;51.686;8.684;2022-08-19T01:19:50;99555.00;;;17.50
29423;BMP180;16399;51.686;8.684;2022-08-19T01:25:31;99552.00;;;17.40
29423;BMP180;16399;51.686;8.684;2022-08-19T01:28:30;99553.00;;;17.50
29423;BMP180;16399;51.686;8.684;2022-08-19T01:31:32;99546.00;;;17.50
29423;BMP180;16399;51.686;8.684;2022-08-19T01:34:35;99546.00;;;17.50
29423;BMP180;16399;51.686;8.684;2022-08-19T01:37:55;99540.00;;;17.40
29423;BMP180;16399;51.686;8.684;2022-08-19T01:40:58;99530.00;;;17.40
29423;BMP180;16399;51.686;8.684;2022-08-19T01:44:01;99531.00;;;17.30
29423;BMP180;16399;51.686;8.684;2022-08-19T01:47:05;99526.00;;;17.20
29423;BMP180;16399;51.686;8.684;2022-08-19T01:50:09;99532.00;;;17.10
29423;BMP180;16399;51.686;8.684;2022-08-19T01:53:12;99533.00;;;17.00
29423;BMP180;16399;51.686;8.684;2022-08-19T01:56:14;99541.00;;;17.00
29423;BMP180;16399;51.686;8.684;2022-08-19T01:59:19;99547.00;;;17.00
29423;BMP180;16399;51.686;8.684;2022-08-19T02:02:22;99548.00;;;17.00
29423;BMP180;16399;51.686;8.684;2022-08-19T02:05:24;99543.00;;;17.10
29423;BMP180;16399;51.686;8.684;2022-08-19T02:08:27;99533.00;;;17.10
29423;BMP180;16399;51.686;8.684;2022-08-19T02:11:32;99531.00;;;17.10
29423;BMP180;16399;51.686;8.684;2022-08-19T02:14:35;99525.00;;;17.00
29423;BMP180;16399;51.686;8.684;2022-08-19T02:17:38;99534.00;;;17.00
29423;BMP180;16399;51.686;8.684;2022-08-19T02:20:42;99526.00;;;17.00
29423;BMP180;16399;51.686;8.684;2022-08-19T02:23:45;99533.00;;;17.00
29423;BMP180;16399;51.686;8.684;2022-08-19T02:26:47;99545.00;;;17.00
29423;BMP180;16399;51.686;8.684;2022-08-19T02:29:51;99547.00;;;17.00
29423;BMP180;16399;51.686;8.684;2022-08-19T02:32:53;99539.00;;;17.10
29423;BMP180;16399;51.686;8.684;2022-08-19T02:35:56;99535.00;;;17.10
29423;BMP180;16399;51.686;8.684;2022-08-19T02:38:58;99532.00;;;17.20
29423;BMP180;16399;51.686;8.684;2022-08-19T02:42:00;99535.00;;;17.30
29423;BMP180;16399;51.686;8.684;2022-08-19T02:45:03;99527.00;;;17.30
29423;BMP180;16399;51.686;8.684;2022-08-19T02:48:06;99530.00;;;17.40
29423;BMP180;16399;51.686;8.684;2022-08-19T02:51:15;99532.00;;;17.40
29423;BMP180;16399;51.686;8.684;2022-08-19T02:54:15;99540.00;;;17.40
29423;BMP180;16399;51.686;8.684;2022-08-19T02:57:18;99539.00;;;17.40
29423;BMP180;16399;51.686;8.684;2022-08-19T03:00:20;99542.00;;;17.40
29423;BMP180;16399;51.686;8.684;2022-08-19T03:03:22;99542.00;;;17.40
29423;BMP180;16399;51.686;8.684;2022-08-19T03:06:25;99532.00;;;17.30
29423;BMP180;16399;51.686;8.684;2022-08-19T03:09:28;99534.00;;;17.20
29423;BMP180;16399;51.686;8.684;2022-08-19T03:12:31;99532.00;;;17.10
29423;BMP180;16399;51.686;8.684;2022-08-19T03:15:33;99533.00;;;17.00
29423;BMP180;16399;51.686;8.684;2022-08-19T03:18:36;99533.00;;;16.90
29423;BMP180;16399;51.686;8.684;2022-08-19T03:21:38;99529.00;;;16.70
29423;BMP180;16399;51.686;8.684;2022-08-19T03:24:40;99527.00;;;16.70
29423;BMP180;16399;51.686;8.684;2022-08-19T03:27:43;99531.00;;;16.60
29423;BMP180;16399;51.686;8.684;2022-08-19T03:31:00;99536.00;;;16.60
29423;BMP180;16399;51.686;8.684;2022-08-19T03:34:02;99546.00;;;16.50
29423;BMP180;16399;51.686;8.684;2022-08-19T03:37:08;99561.00;;;16.40
29423;BMP180;16399;51.686;8.684;2022-08-19T03:40:10;99546.00;;;16.30
29423;BMP180;16399;51.686;8.684;2022-08-19T03:43:13;99540.00;;;16.20
29423;BMP180;16399;51.686;8.684;2022-08-19T03:46:24;99561.00;;;16.10
29423;BMP180;16399;51.686;8.684;2022-08-19T03:49:24;99566.00;;;16.00
29423;BMP180;16399;51.686;8.684;2022-08-19T03:52:28;99566.00;;;15.90
29423;BMP180;16399;51.686;8.684;2022-08-19T03:55:30;99570.00;;;15.90
29423;BMP180;16399;51.686;8.684;2022-08-19T03:58:33;99574.00;;;15.90
29423;BMP180;16399;51.686;8.684;2022-08-19T04:01:35;99588.00;;;15.90
29423;BMP180;16399;51.686;8.684;2022-08-19T04:04:40;99588.00;;;15.90
29423;BMP180;16399;51.686;8.684;2022-08-19T04:07:42;99589.00;;;16.00
29423;BMP180;16399;51.686;8.684;2022-08-19T04:10:46;99581.00;;;16.10
29423;BMP180;16399;51.686;8.684;2022-08-19T04:13:50;99580.00;;;16.20
29423;BMP180;16399;51.686;8.684;2022-08-19T04:16:53;99584.00;;;16.30
29423;BMP180;16399;51.686;8.684;2022-08-19T04:19:55;99581.00;;;16.40
29423;BMP180;16399;51.686;8.684;2022-08-19T04:22:58;99593.00;;;16.50
29423;BMP180;16399;51.686;8.684;2022-08-19T04:26:00;99589.00;;;16.50
29423;BMP180;16399;51.686;8.684;2022-08-19T04:29:08;99593.00;;;16.50
29423;BMP180;16399;51.686;8.684;2022-08-19T04:32:10;99586.00;;;16.50
29423;BMP180;16399;51.686;8.684;2022-08-19T04:35:14;99580.00;;;16.50
29423;BMP180;16399;51.686;8.684;2022-08-19T04:38:19;99570.00;;;16.60
29423;BMP180;16399;51.686;8.684;2022-08-19T04:41:24;99576.00;;;16.60
29423;BMP180;16399;51.686;8.684;2022-08-19T04:44:45;99579.00;;;16.60
29423;BMP180;16399;51.686;8.684;2022-08-19T04:47:47;99582.00;;;16.60
29423;BMP180;16399;51.686;8.684;2022-08-19T04:50:49;99580.00;;;16.70
29423;BMP180;16399;51.686;8.684;2022-08-19T04:53:52;99579.00;;;16.70
29423;BMP180;16399;51.686;8.684;2022-08-19T04:56:55;99576.00;;;16.70
29423;BMP180;16399;51.686;8.684;2022-08-19T04:59:57;99587.00;;;16.70
29423;BMP180;16399;51.686;8.684;2022-08-19T05:02:59;99584.00;;;16.70
29423;BMP180;16399;51.686;8.684;2022-08-19T05:06:11;99571.00;;;16.70
29423;BMP180;16399;51.686;8.684;2022-08-19T05:09:14;99582.00;;;16.70
29423;BMP180;16399;51.686;8.684;2022-08-19T05:12:17;99577.00;;;16.70
29423;BMP180;16399;51.686;8.684;2022-08-19T05:15:20;99580.00;;;16.80
29423;BMP180;16399;51.686;8.684;2022-08-19T05:18:22;99580.00;;;16.90
29423;BMP180;16399;51.686;8.684;2022-08-19T05:21:43;99586.00;;;17.00
29423;BMP180;16399;51.686;8.684;2022-08-19T05:25:12;99589.00;;;17.00
29423;BMP180;16399;51.686;8.684;2022-08-19T05:28:09;99577.00;;;17.10
29423;BMP180;16399;51.686;8.684;2022-08-19T05:31:11;99579.00;;;17.20
29423;BMP180;16399;51.686;8.684;2022-08-19T05:34:14;99576.00;;;17.30
29423;BMP180;16399;51.686;8.684;2022-08-19T05:37:16;99569.00;;;17.50
29423;BMP180;16399;51.686;8.684;2022-08-19T05:40:18;99570.00;;;17.60
29423;BMP180;16399;51.686;8.684;2022-08-19T05:43:21;99574.00;;;17.70
29423;BMP180;16399;51.686;8.684;2022-08-19T05:46:23;99578.00;;;17.80
29423;BMP180;16399;51.686;8.684;2022-08-19T05:49:27;99574.00;;;17.90
29423;BMP180;16399;51.686;8.684;2022-08-19T05:52:30;99575.00;;;17.90
29423;BMP180;16399;51.686;8.684;2022-08-19T05:55:32;99571.00;;;18.00
29423;BMP180;16399;51.686;8.684;2022-08-19T05:58:36;99570.00;;;18.10
29423;BMP180;16399;51.686;8.684;2022-08-19T06:01:40;99566.00;;;18.30
29423;BMP180;16399;51.686;8.684;2022-08-19T06:04:43;99571.00;;;18.40
29423;BMP180;16399;51.686;8.684;2022-08-19T06:07:45;99574.00;;;18.60
29423;BMP180;16399;51.686;8.684;2022-08-19T06:10:47;99576.00;;;18.70
29423;BMP180;16399;51.686;8.684;2022-08-19T06:13:52;99565.00;;;18.70
29423;BMP180;16399;51.686;8.684;2022-08-19T06:16:54;99571.00;;;18.70
29423;BMP180;16399;51.686;8.684;2022-08-19T06:19:57;99566.00;;;18.70
29423;BMP180;16399;51.686;8.684;2022-08-19T06:22:59;99563.00;;;18.80
29423;BMP180;16399;51.686;8.684;2022-08-19T06:26:01;99548.00;;;18.80
29423;BMP180;16399;51.686;8.684;2022-08-19T06:29:05;99550.00;;;18.80
29423;BMP180;16399;51.686;8.684;2022-08-19T06:32:08;99575.00;;;18.80
29423;BMP180;16399;51.686;8.684;2022-08-19T06:35:12;99573.00;;;18.90
29423;BMP180;16399;51.686;8.684;2022-08-19T06:38:15;99567.00;;;18.80
29423;BMP180;16399;51.686;8.684;2022-08-19T06:41:18;99562.00;;;18.80
29423;BMP180;16399;51.686;8.684;2022-08-19T06:44:22;99571.00;;;18.80
29423;BMP180;16399;51.686;8.684;2022-08-19T06:47:26;99571.00;;;18.80
29423;BMP180;16399;51.686;8.684;2022-08-19T06:50:29;99570.00;;;18.90
29423;BMP180;16399;51.686;8.684;2022-08-19T06:53:32;99580.00;;;19.00
29423;BMP180;16399;51.686;8.684;2022-08-19T06:56:35;99584.00;;;19.10
29423;BMP180;16399;51.686;8.684;2022-08-19T06:59:37;99585.00;;;19.30
29423;BMP180;16399;51.686;8.684;2022-08-19T07:02:41;99587.00;;;19.40
29423;BMP180;16399;51.686;8.684;2022-08-19T07:05:44;99596.00;;;19.50
29423;BMP180;16399;51.686;8.684;2022-08-19T07:08:47;99593.00;;;19.60
29423;BMP180;16399;51.686;8.684;2022-08-19T07:11:51;99595.00;;;19.70
29423;BMP180;16399;51.686;8.684;2022-08-19T07:14:53;99592.00;;;19.80
29423;BMP180;16399;51.686;8.684;2022-08-19T07:17:56;99594.00;;;20.00
29423;BMP180;16399;51.686;8.684;2022-08-19T07:21:13;99608.00;;;20.10
29423;BMP180;16399;51.686;8.684;2022-08-19T07:24:16;99626.00;;;20.20
29423;BMP180;16399;51.686;8.684;2022-08-19T07:27:19;99631.00;;;20.40
29423;BMP180;16399;51.686;8.684;2022-08-19T07:30:21;99635.00;;;20.50
29423;BMP180;16399;51.686;8.684;2022-08-19T07:33:25;99624.00;;;20.50
29423;BMP180;16399;51.686;8.684;2022-08-19T07:36:28;99629.00;;;20.60
29423;BMP180;16399;51.686;8.684;2022-08-19T07:39:35;99630.00;;;20.70
29423;BMP180;16399;51.686;8.684;2022-08-19T07:42:37;99646.00;;;20.70
29423;BMP180;16399;51.686;8.684;2022-08-19T07:45:40;99641.00;;;20.70
29423;BMP180;16399;51.686;8.684;2022-08-19T07:48:44;99642.00;;;20.70
29423;BMP180;16399;51.686;8.684;2022-08-19T07:51:56;99650.00;;;20.70
29423;BMP180;16399;51.686;8.684;2022-08-19T07:54:58;99658.00;;;20.60
29423;BMP180;16399;51.686;8.684;2022-08-19T07:58:03;99661.00;;;20.60
29423;BMP180;16399;51.686;8.684;2022-08-19T08:01:07;99663.00;;;20.70
29423;BMP180;16399;51.686;8.684;2022-08-19T08:04:11;99658.00;;;20.80
29423;BMP180;16399;51.686;8.684;2022-08-19T08:07:31;99660.00;;;21.00
29423;BMP180;16399;51.686;8.684;2022-08-19T08:10:51;99665.00;;;21.10
29423;BMP180;16399;51.686;8.684;2022-08-19T08:13:54;99658.00;;;21.30
29423;BMP180;16399;51.686;8.684;2022-08-19T08:16:56;99651.00;;;21.40
29423;BMP180;16399;51.686;8.684;2022-08-19T08:19:59;99653.00;;;21.60
29423;BMP180;16399;51.686;8.684;2022-08-19T08:23:01;99643.00;;;21.90
29423;BMP180;16399;51.686;8.684;2022-08-19T08:26:22;99647.00;;;22.20
29423;BMP180;16399;51.686;8.684;2022-08-19T08:29:30;99645.00;;;22.50
29423;BMP180;16399;51.686;8.684;2022-08-19T08:32:28;99647.00;;;22.80
29423;BMP180;16399;51.686;8.684;2022-08-19T08:35:31;99650.00;;;23.20
29423;BMP180;16399;51.686;8.684;2022-08-19T08:38:35;99649.00;;;23.20
29423;BMP180;16399;51.686;8.684;2022-08-19T08:42:06;99642.00;;;23.30
29423;BMP180;16399;51.686;8.684;2022-08-19T08:45:10;99648.00;;;23.30
29423;BMP180;16399;51.686;8.684;2022-08-19T08:48:49;99655.00;;;23.20
29423;BMP180;16399;51.686;8.684;2022-08-19T08:51:34;99656.00;;;23.00
29423;BMP180;16399;51.686;8.684;2022-08-19T08:54:34;99653.00;;;22.90
29423;BMP180;16399;51.686;8.684;2022-08-19T08:57:55;99647.00;;;23.20
29423;BMP180;16399;51.686;8.684;2022-08-19T09:00:57;99657.00;;;23.70
29423;BMP180;16399;51.686;8.684;2022-08-19T09:03:59;99661.00;;;24.20
29423;BMP180;16399;51.686;8.684;2022-08-19T09:07:25;99656.00;;;24.70
29423;BMP180;16399;51.686;8.684;2022-08-19T09:10:34;99653.00;;;25.10
29423;BMP180;16399;51.686;8.684;2022-08-19T09:14:02;99646.00;;;25.40
29423;BMP180;16399;51.686;8.684;2022-08-19T09:16:53;99638.00;;;25.50
29423;BMP180;16399;51.686;8.684;2022-08-19T09:19:58;99629.00;;;25.50
29423;BMP180;16399;51.686;8.684;2022-08-19T09:23:02;99622.00;;;25.60
29423;BMP180;16399;51.686;8.684;2022-08-19T09:26:14;99635.00;;;25.70
29423;BMP180;16399;51.686;8.684;2022-08-19T09:29:17;99642.00;;;25.50
29423;BMP180;16399;51.686;8.684;2022-08-19T09:32:19;99641.00;;;25.40
29423;BMP180;16399;51.686;8.684;2022-08-19T09:35:24;99638.00;;;25.20
29423;BMP180;16399;51.686;8.684;2022-08-19T09:38:27;99633.00;;;24.90
29423;BMP180;16399;51.686;8.684;2022-08-19T09:41:29;99644.00;;;24.70
29423;BMP180;16399;51.686;8.684;2022-08-19T09:44:32;99654.00;;;24.50
29423;BMP180;16399;51.686;8.684;2022-08-19T09:47:36;99664.00;;;24.40
29423;BMP180;16399;51.686;8.684;2022-08-19T09:50:39;99642.00;;;24.50
29423;BMP180;16399;51.686;8.684;2022-08-19T09:53:43;99633.00;;;24.90
29423;BMP180;16399;51.686;8.684;2022-08-19T09:56:46;99631.00;;;25.10
29423;BMP180;16399;51.686;8.684;2022-08-19T09:59:48;99647.00;;;25.30
29423;BMP180;16399;51.686;8.684;2022-08-19T10:02:50;99647.00;;;25.20
29423;BMP180;16399;51.686;8.684;2022-08-19T10:05:53;99631.00;;;25.20
29423;BMP180;16399;51.686;8.684;2022-08-19T10:08:56;99628.00;;;25.60
29423;BMP180;16399;51.686;8.684;2022-08-19T10:11:58;99625.00;;;26.10
29423;BMP180;16399;51.686;8.684;2022-08-19T10:15:04;99631.00;;;26.50
29423;BMP180;16399;51.686;8.684;2022-08-19T10:18:08;99634.00;;;26.80
29423;BMP180;16399;51.686;8.684;2022-08-19T10:21:19;99635.00;;;26.70
29423;BMP180;16399;51.686;8.684;2022-08-19T10:24:16;99638.00;;;26.60
29423;BMP180;16399;51.686;8.684;2022-08-19T10:27:18;99632.00;;;26.40
29423;BMP180;16399;51.686;8.684;2022-08-19T10:30:21;99635.00;;;25.90
29423;BMP180;16399;51.686;8.684;2022-08-19T10:33:23;99628.00;;;25.50
29423;BMP180;16399;51.686;8.684;2022-08-19T10:36:28;99625.00;;;25.10
29423;BMP180;16399;51.686;8.684;2022-08-19T10:39:32;99613.00;;;24.90
29423;BMP180;16399;51.686;8.684;2022-08-19T10:42:35;99618.00;;;25.10
29423;BMP180;16399;51.686;8.684;2022-08-19T10:45:37;99610.00;;;25.50
29423;BMP180;16399;51.686;8.684;2022-08-19T10:48:41;99608.00;;;26.00
29423;BMP180;16399;51.686;8.684;2022-08-19T10:51:44;99616.00;;;26.60
29423;BMP180;16399;51.686;8.684;2022-08-19T10:55:06;99619.00;;;26.90
29423;BMP180;16399;51.686;8.684;2022-08-19T10:58:26;99613.00;;;26.60
29423;BMP180;16399;51.686;8.684;2022-08-19T11:01:30;99609.00;;;26.30
29423;BMP180;16399;51.686;8.684;2022-08-19T11:04:34;99608.00;;;25.90
29423;BMP180;16399;51.686;8.684;2022-08-19T11:07:37;99611.00;;;25.60
29423;BMP180;16399;51.686;8.684;2022-08-19T11:10:42;99601.00;;;25.40
29423;BMP180;16399;51.686;8.684;2022-08-19T11:13:45;99596.00;;;25.30
29423;BMP180;16399;51.686;8.684;2022-08-19T11:16:48;99584.00;;;25.50
29423;BMP180;16399;51.686;8.684;2022-08-19T11:19:51;99589.00;;;26.00
29423;BMP180;16399;51.686;8.684;2022-08-19T11:22:53;99589.00;;;26.50
29423;BMP180;16399;51.686;8.684;2022-08-19T11:25:58;99579.00;;;26.90
29423;BMP180;16399;51.686;8.684;2022-08-19T11:29:01;99596.00;;;27.20
29423;BMP180;16399;51.686;8.684;2022-08-19T11:32:07;99594.00;;;27.30
29423;BMP180;16399;51.686;8.684;2022-08-19T11:35:10;99596.00;;;26.90
29423;BMP180;16399;51.686;8.684;2022-08-19T11:38:12;99578.00;;;26.60
29423;BMP180;16399;51.686;8.684;2022-08-19T11:41:18;99585.00;;;26.70
29423;BMP180;16399;51.686;8.684;2022-08-19T11:44:21;99577.00;;;27.00
29423;BMP180;16399;51.686;8.684;2022-08-19T11:47:23;99575.00;;;27.20
29423;BMP180;16399;51.686;8.684;2022-08-19T11:50:27;99576.00;;;27.50
29423;BMP180;16399;51.686;8.684;2022-08-19T11:53:30;99560.00;;;27.80
29423;BMP180;16399;51.686;8.684;2022-08-19T11:56:32;99581.00;;;28.00
29423;BMP180;16399;51.686;8.684;2022-08-19T11:59:34;99573.00;;;27.80
29423;BMP180;16399;51.686;8.684;2022-08-19T12:02:37;99569.00;;;27.80
29423;BMP180;16399;51.686;8.684;2022-08-19T12:05:40;99556.00;;;27.90
29423;BMP180;16399;51.686;8.684;2022-08-19T12:08:43;99567.00;;;28.00
29423;BMP180;16399;51.686;8.684;2022-08-19T12:11:46;99562.00;;;28.20
29423;BMP180;16399;51.686;8.684;2022-08-19T12:14:48;99560.00;;;28.20
29423;BMP180;16399;51.686;8.684;2022-08-19T12:17:51;99563.00;;;28.30
29423;BMP180;16399;51.686;8.684;2022-08-19T12:20:55;99563.00;;;28.50
29423;BMP180;16399;51.686;8.684;2022-08-19T12:23:59;99548.00;;;28.40
29423;BMP180;16399;51.686;8.684;2022-08-19T12:27:01;99560.00;;;28.20
29423;BMP180;16399;51.686;8.684;2022-08-19T12:30:05;99573.00;;;28.10
29423;BMP180;16399;51.686;8.684;2022-08-19T12:33:08;99573.00;;;27.90
29423;BMP180;16399;51.686;8.684;2022-08-19T12:36:12;99564.00;;;27.60
29423;BMP180;16399;51.686;8.684;2022-08-19T12:39:15;99549.00;;;27.60
29423;BMP180;16399;51.686;8.684;2022-08-19T12:42:17;99548.00;;;27.70
29423;BMP180;16399;51.686;8.684;2022-08-19T12:45:20;99554.00;;;27.90
29423;BMP180;16399;51.686;8.684;2022-08-19T12:48:23;99546.00;;;27.80
29423;BMP180;16399;51.686;8.684;2022-08-19T12:51:26;99548.00;;;27.50
29423;BMP180;16399;51.686;8.684;2022-08-19T12:54:29;99539.00;;;27.60
29423;BMP180;16399;51.686;8.684;2022-08-19T12:57:31;99528.00;;;27.60
29423;BMP180;16399;51.686;8.684;2022-08-19T13:00:37;99530.00;;;27.70
29423;BMP180;16399;51.686;8.684;2022-08-19T13:03:39;99526.00;;;27.90
29423;BMP180;16399;51.686;8.684;2022-08-19T13:06:42;99532.00;;;28.00
29423;BMP180;16399;51.686;8.684;2022-08-19T13:09:44;99535.00;;;28.10
29423;BMP180;16399;51.686;8.684;2022-08-19T13:12:49;99532.00;;;28.10
29423;BMP180;16399;51.686;8.684;2022-08-19T13:15:51;99539.00;;;28.20
29423;BMP180;16399;51.686;8.684;2022-08-19T13:18:55;99542.00;;;28.20
29423;BMP180;16399;51.686;8.684;2022-08-19T13:21:58;99541.00;;;28.30
29423;BMP180;16399;51.686;8.684;2022-08-19T13:25:00;99537.00;;;28.40
29423;BMP180;16399;51.686;8.684;2022-08-19T13:28:03;99538.00;;;28.60
29423;BMP180;16399;51.686;8.684;2022-08-19T13:31:07;99539.00;;;28.60
29423;BMP180;16399;51.686;8.684;2022-08-19T13:34:33;99528.00;;;28.50
29423;BMP180;16399;51.686;8.684;2022-08-19T13:37:36;99539.00;;;28.50
29423;BMP180;16399;51.686;8.684;2022-08-19T13:40:44;99536.00;;;28.50
29423;BMP180;16399;51.686;8.684;2022-08-19T13:43:47;99531.00;;;28.50
29423;BMP180;16399;51.686;8.684;2022-08-19T13:46:50;99524.00;;;28.50
29423;BMP180;16399;51.686;8.684;2022-08-19T13:49:53;99530.00;;;28.40
29423;BMP180;16399;51.686;8.684;2022-08-19T13:52:56;99530.00;;;28.40
29423;BMP180;16399;51.686;8.684;2022-08-19T13:55:58;99536.00;;;28.20
29423;BMP180;16399;51.686;8.684;2022-08-19T13:59:01;99530.00;;;28.20
29423;BMP180;16399;51.686;8.684;2022-08-19T14:02:03;99529.00;;;28.10
29423;BMP180;16399;51.686;8.684;2022-08-19T14:05:08;99524.00;;;28.10
29423;BMP180;16399;51.686;8.684;2022-08-19T14:08:11;99528.00;;;28.20
29423;BMP180;16399;51.686;8.684;2022-08-19T14:11:15;99521.00;;;28.40
29423;BMP180;16399;51.686;8.684;2022-08-19T14:14:18;99532.00;;;28.50
29423;BMP180;16399;51.686;8.684;2022-08-19T14:17:20;99532.00;;;28.50
29423;BMP180;16399;51.686;8.684;2022-08-19T14:20:23;99531.00;;;28.30
29423;BMP180;16399;51.686;8.684;2022-08-19T14:23:25;99530.00;;;28.30
29423;BMP180;16399;51.686;8.684;2022-08-19T14:26:28;99529.00;;;28.30
29423;BMP180;16399;51.686;8.684;2022-08-19T14:29:30;99538.00;;;28.30
29423;BMP180;16399;51.686;8.684;2022-08-19T14:32:33;99538.00;;;28.20
29423;BMP180;16399;51.686;8.684;2022-08-19T14:35:36;99538.00;;;28.20
29423;BMP180;16399;51.686;8.684;2022-08-19T14:38:38;99540.00;;;28.20
29423;BMP180;16399;51.686;8.684;2022-08-19T14:41:41;99545.00;;;28.10
29423;BMP180;16399;51.686;8.684;2022-08-19T14:44:44;99542.00;;;28.10
29423;BMP180;16399;51.686;8.684;2022-08-19T14:47:46;99548.00;;;28.10
29423;BMP180;16399;51.686;8.684;2022-08-19T14:50:48;99551.00;;;28.00
29423;BMP180;16399;51.686;8.684;2022-08-19T14:53:51;99550.00;;;27.80
29423;BMP180;16399;51.686;8.684;2022-08-19T14:56:53;99554.00;;;27.60
29423;BMP180;16399;51.686;8.684;2022-08-19T14:59:56;99552.00;;;27.40
29423;BMP180;16399;51.686;8.684;2022-08-19T15:02:58;99552.00;;;27.30
29423;BMP180;16399;51.686;8.684;2022-08-19T15:06:04;99548.00;;;27.20
29423;BMP180;16399;51.686;8.684;2022-08-19T15:09:07;99555.00;;;27.10
29423;BMP180;16399;51.686;8.684;2022-08-19T15:12:09;99553.00;;;27.10
29423;BMP180;16399;51.686;8.684;2022-08-19T15:15:13;99563.00;;;27.00
29423;BMP180;16399;51.686;8.684;2022-08-19T15:18:19;99562.00;;;27.00
29423;BMP180;16399;51.686;8.684;2022-08-19T15:21:22;99560.00;;;27.00
29423;BMP180;16399;51.686;8.684;2022-08-19T15:24:25;99564.00;;;27.00
29423;BMP180;16399;51.686;8.684;2022-08-19T15:27:28;99560.00;;;27.10
29423;BMP180;16399;51.686;8.684;2022-08-19T15:30:30;99566.00;;;27.20
29423;BMP180;16399;51.686;8.684;2022-08-19T15:33:35;99562.00;;;27.20
29423;BMP180;16399;51.686;8.684;2022-08-19T15:36:38;99554.00;;;27.20
29423;BMP180;16399;51.686;8.684;2022-08-19T15:39:40;99556.00;;;27.30
29423;BMP180;16399;51.686;8.684;2022-08-19T15:42:44;99561.00;;;27.40
29423;BMP180;16399;51.686;8.684;2022-08-19T15:45:47;99567.00;;;27.40
29423;BMP180;16399;51.686;8.684;2022-08-19T15:48:51;99574.00;;;27.30
29423;BMP180;16399;51.686;8.684;2022-08-19T15:51:53;99575.00;;;27.30
29423;BMP180;16399;51.686;8.684;2022-08-19T15:54:57;99580.00;;;27.20
29423;BMP180;16399;51.686;8.684;2022-08-19T15:58:05;99577.00;;;27.10
29423;BMP180;16399;51.686;8.684;2022-08-19T16:01:26;99570.00;;;27.00
29423;BMP180;16399;51.686;8.684;2022-08-19T16:04:33;99571.00;;;26.80
29423;BMP180;16399;51.686;8.684;2022-08-19T16:07:54;99560.00;;;26.60
29423;BMP180;16399;51.686;8.684;2022-08-19T16:10:57;99560.00;;;26.50
29423;BMP180;16399;51.686;8.684;2022-08-19T16:14:00;99561.00;;;26.50
29423;BMP180;16399;51.686;8.684;2022-08-19T16:17:02;99564.00;;;26.50
29423;BMP180;16399;51.686;8.684;2022-08-19T16:20:08;99569.00;;;26.50
29423;BMP180;16399;51.686;8.684;2022-08-19T16:23:11;99566.00;;;26.40
29423;BMP180;16399;51.686;8.684;2022-08-19T16:26:16;99569.00;;;26.30
29423;BMP180;16399;51.686;8.684;2022-08-19T16:29:20;99566.00;;;26.30
29423;BMP180;16399;51.686;8.684;2022-08-19T16:32:25;99560.00;;;26.20
29423;BMP180;16399;51.686;8.684;2022-08-19T16:35:28;99552.00;;;26.10
29423;BMP180;16399;51.686;8.684;2022-08-19T16:38:30;99560.00;;;26.00
29423;BMP180;16399;51.686;8.684;2022-08-19T16:41:33;99547.00;;;26.00
29423;BMP180;16399;51.686;8.684;2022-08-19T16:44:39;99550.00;;;26.00
29423;BMP180;16399;51.686;8.684;2022-08-19T16:47:42;99548.00;;;26.10
29423;BMP180;16399;51.686;8.684;2022-08-19T16:50:44;99561.00;;;26.20
29423;BMP180;16399;51.686;8.684;2022-08-19T16:53:47;99563.00;;;26.20
29423;BMP180;16399;51.686;8.684;2022-08-19T16:56:51;99554.00;;;26.30
29423;BMP180;16399;51.686;8.684;2022-08-19T16:59:54;99556.00;;;26.30
29423;BMP180;16399;51.686;8.684;2022-08-19T17:02:56;99561.00;;;26.30
29423;BMP180;16399;51.686;8.684;2022-08-19T17:05:59;99557.00;;;26.30
29423;BMP180;16399;51.686;8.684;2022-08-19T17:09:06;99553.00;;;26.30
29423;BMP180;16399;51.686;8.684;2022-08-19T17:12:08;99555.00;;;26.40
29423;BMP180;16399;51.686;8.684;2022-08-19T17:15:11;99554.00;;;26.40
29423;BMP180;16399;51.686;8.684;2022-08-19T17:18:14;99548.00;;;26.40
29423;BMP180;16399;51.686;8.684;2022-08-19T17:21:16;99546.00;;;26.40
29423;BMP180;16399;51.686;8.684;2022-08-19T17:24:19;99538.00;;;26.40
29423;BMP180;16399;51.686;8.684;2022-08-19T17:27:21;99539.00;;;26.30
29423;BMP180;16399;51.686;8.684;2022-08-19T17:30:24;99538.00;;;26.30
29423;BMP180;16399;51.686;8.684;2022-08-19T17:33:26;99542.00;;;26.20
29423;BMP180;16399;51.686;8.684;2022-08-19T17:36:31;99547.00;;;26.10
29423;BMP180;16399;51.686;8.684;2022-08-19T17:39:34;99546.00;;;26.10
29423;BMP180;16399;51.686;8.684;2022-08-19T17:42:38;99540.00;;;26.00
29423;BMP180;16399;51.686;8.684;2022-08-19T17:45:42;99544.00;;;25.90